sensor_id;sensor_type;location;lat;lon;timestamp;pressure;altitude;pressure_sealevel;temperature;humidity
77410;BME280;66481;51.332;22.804;2024-02-26T00:00:44;98851.63;;;8.26;100.00
77410;BME280;66481;51.332;22.804;2024-02-26T00:05:07;98843.47;;;8.18;100.00
77410;BME280;66481;51.332;22.804;2024-02-26T00:09:09;98842.63;;;8.18;100.00
77410;BME280;66481;51.332;22.804;2024-02-26T00:13:11;98853.41;;;8.15;100.00
77410;BME280;66481;51.332;22.804;2024-02-26T00:17:12;98857.97;;;8.24;100.00
77410;BME280;66481;51.332;22.804;2024-02-26T00:21:13;98856.28;;;8.23;100.00
77410;BME280;66481;51.332;22.804;2024-02-26T00:25:14;98862.53;;;8.33;100.00
77410;BME280;66481;51.332;22.804;2024-02-26T00:29:15;98849.69;;;8.28;100.00
77410;BME280;66481;51.332;22.804;2024-02-26T00:33:16;98847.91;;;8.29;100.00
77410;BME280;66481;51.332;22.804;2024-02-26T00:37:18;98856.06;;;8.26;100.00
77410;BME280;66481;51.332;22.804;2024-02-26T00:41:20;98841.69;;;8.19;100.00
77410;BME280;66481;51.332;22.804;2024-02-26T00:45:21;98854.63;;;8.22;100.00
77410;BME280;66481;51.332;22.804;2024-02-26T00:49:22;98854.25;;;8.15;100.00
77410;BME280;66481;51.332;22.804;2024-02-26T00:53:24;98860.47;;;8.14;100.00
77410;BME280;66481;51.332;22.804;2024-02-26T00:57:26;98854.38;;;8.14;100.00
77410;BME280;66481;51.332;22.804;2024-02-26T01:01:27;98864.88;;;8.02;100.00
77410;BME280;66481;51.332;22.804;2024-02-26T01:05:28;98865.38;;;7.96;100.00
77410;BME280;66481;51.332;22.804;2024-02-26T01:09:30;98874.22;;;7.95;100.00
77410;BME280;66481;51.332;22.804;2024-02-26T01:13:31;98868.34;;;7.91;100.00
77410;BME280;66481;51.332;22.804;2024-02-26T01:17:32;98857.44;;;7.85;100.00
77410;BME280;66481;51.332;22.804;2024-02-26T01:21:33;98864.28;;;7.87;100.00
77410;BME280;66481;51.332;22.804;2024-02-26T01:25:34;98868.81;;;7.85;100.00
77410;BME280;66481;51.332;22.804;2024-02-26T01:29:35;98867.97;;;7.85;100.00
77410;BME280;66481;51.332;22.804;2024-02-26T01:33:37;98868.47;;;7.79;100.00
77410;BME280;66481;51.332;22.804;2024-02-26T01:37:38;98879.81;;;7.79;100.00
77410;BME280;66481;51.332;22.804;2024-02-26T01:41:40;98882.25;;;7.82;100.00
77410;BME280;66481;51.332;22.804;2024-02-26T01:45:41;98879.81;;;7.79;100.00
77410;BME280;66481;51.332;22.804;2024-02-26T01:49:42;98873.09;;;7.75;100.00
77410;BME280;66481;51.332;22.804;2024-02-26T01:53:43;98879.34;;;7.74;100.00
77410;BME280;66481;51.332;22.804;2024-02-26T01:57:48;98888.91;;;7.75;100.00
77410;BME280;66481;51.332;22.804;2024-02-26T02:01:53;98895.97;;;7.75;100.00
77410;BME280;66481;51.332;22.804;2024-02-26T02:05:55;98909.97;;;7.75;100.00
77410;BME280;66481;51.332;22.804;2024-02-26T02:09:56;98919.28;;;7.68;100.00
77410;BME280;66481;51.332;22.804;2024-02-26T02:13:57;98927.94;;;7.70;100.00
77410;BME280;66481;51.332;22.804;2024-02-26T02:17:58;98940.59;;;7.65;100.00
77410;BME280;66481;51.332;22.804;2024-02-26T02:22:00;98931.94;;;7.63;100.00
77410;BME280;66481;51.332;22.804;2024-02-26T02:26:01;98928.81;;;7.58;100.00
77410;BME280;66481;51.332;22.804;2024-02-26T02:30:02;98934.34;;;7.55;100.00
77410;BME280;66481;51.332;22.804;2024-02-26T02:34:04;98931.59;;;7.56;100.00
77410;BME280;66481;51.332;22.804;2024-02-26T02:38:05;98943.78;;;7.57;100.00
77410;BME280;66481;51.332;22.804;2024-02-26T02:42:06;98948.00;;;7.60;100.00
77410;BME280;66481;51.332;22.804;2024-02-26T02:46:07;98950.00;;;7.56;100.00
77410;BME280;66481;51.332;22.804;2024-02-26T02:50:08;98955.28;;;7.56;100.00
77410;BME280;66481;51.332;22.804;2024-02-26T02:54:10;98944.97;;;7.53;100.00
77410;BME280;66481;51.332;22.804;2024-02-26T02:58:10;98969.50;;;7.53;100.00
77410;BME280;66481;51.332;22.804;2024-02-26T03:02:12;98966.88;;;7.53;100.00
77410;BME280;66481;51.332;22.804;2024-02-26T03:06:13;98970.78;;;7.48;100.00
77410;BME280;66481;51.332;22.804;2024-02-26T03:10:14;98973.94;;;7.53;100.00
77410;BME280;66481;51.332;22.804;2024-02-26T03:14:15;98977.00;;;7.47;100.00
77410;BME280;66481;51.332;22.804;2024-02-26T03:18:16;98977.81;;;7.47;100.00
77410;BME280;66481;51.332;22.804;2024-02-26T03:22:18;98985.88;;;7.46;100.00
77410;BME280;66481;51.332;22.804;2024-02-26T03:26:19;98991.22;;;7.44;100.00
77410;BME280;66481;51.332;22.804;2024-02-26T03:30:20;99009.19;;;7.50;100.00
77410;BME280;66481;51.332;22.804;2024-02-26T03:34:21;99013.13;;;7.45;100.00
77410;BME280;66481;51.332;22.804;2024-02-26T03:38:22;99023.53;;;7.46;100.00
77410;BME280;66481;51.332;22.804;2024-02-26T03:42:23;99019.94;;;7.47;100.00
77410;BME280;66481;51.332;22.804;2024-02-26T03:46:25;99024.38;;;7.47;100.00
77410;BME280;66481;51.332;22.804;2024-02-26T03:50:26;99020.91;;;7.46;100.00
77410;BME280;66481;51.332;22.804;2024-02-26T03:54:27;99031.22;;;7.49;100.00
77410;BME280;66481;51.332;22.804;2024-02-26T03:58:30;99005.44;;;7.42;100.00
77410;BME280;66481;51.332;22.804;2024-02-26T04:02:31;99011.69;;;7.41;100.00
77410;BME280;66481;51.332;22.804;2024-02-26T04:06:32;99018.50;;;7.43;100.00
77410;BME280;66481;51.332;22.804;2024-02-26T04:10:34;99032.59;;;7.42;100.00
77410;BME280;66481;51.332;22.804;2024-02-26T04:14:41;99030.59;;;7.46;100.00
77410;BME280;66481;51.332;22.804;2024-02-26T04:18:42;99023.03;;;7.41;100.00
77410;BME280;66481;51.332;22.804;2024-02-26T04:22:44;99046.50;;;7.44;100.00
77410;BME280;66481;51.332;22.804;2024-02-26T04:26:45;99041.47;;;7.41;100.00
77410;BME280;66481;51.332;22.804;2024-02-26T04:30:47;99048.06;;;7.47;100.00
77410;BME280;66481;51.332;22.804;2024-02-26T04:34:48;99054.16;;;7.47;100.00
77410;BME280;66481;51.332;22.804;2024-02-26T04:38:49;99046.50;;;7.44;100.00
77410;BME280;66481;51.332;22.804;2024-02-26T04:42:50;99053.44;;;7.45;100.00
77410;BME280;66481;51.332;22.804;2024-02-26T04:46:52;99058.50;;;7.48;100.00
77410;BME280;66481;51.332;22.804;2024-02-26T04:50:53;99049.97;;;7.45;100.00
77410;BME280;66481;51.332;22.804;2024-02-26T04:54:54;99051.66;;;7.46;100.00
77410;BME280;66481;51.332;22.804;2024-02-26T04:58:55;99046.25;;;7.47;100.00
77410;BME280;66481;51.332;22.804;2024-02-26T05:02:56;99039.97;;;7.50;100.00
77410;BME280;66481;51.332;22.804;2024-02-26T05:06:57;99045.94;;;7.52;100.00
77410;BME280;66481;51.332;22.804;2024-02-26T05:10:59;99045.53;;;7.45;100.00
77410;BME280;66481;51.332;22.804;2024-02-26T05:15:01;99048.78;;;7.49;100.00
77410;BME280;66481;51.332;22.804;2024-02-26T05:19:03;99052.38;;;7.48;100.00
77410;BME280;66481;51.332;22.804;2024-02-26T05:23:04;99060.28;;;7.48;100.00
77410;BME280;66481;51.332;22.804;2024-02-26T05:27:05;99067.09;;;7.50;100.00
77410;BME280;66481;51.332;22.804;2024-02-26T05:31:06;99067.31;;;7.47;100.00
77410;BME280;66481;51.332;22.804;2024-02-26T05:35:07;99071.75;;;7.47;100.00
77410;BME280;66481;51.332;22.804;2024-02-26T05:39:09;99068.41;;;7.45;100.00
77410;BME280;66481;51.332;22.804;2024-02-26T05:43:12;99073.78;;;7.43;100.00
77410;BME280;66481;51.332;22.804;2024-02-26T05:47:16;99075.47;;;7.44;100.00
77410;BME280;66481;51.332;22.804;2024-02-26T05:51:18;99079.88;;;7.44;100.00
77410;BME280;66481;51.332;22.804;2024-02-26T05:55:19;99096.28;;;7.47;100.00
77410;BME280;66481;51.332;22.804;2024-02-26T05:59:21;99090.19;;;7.47;100.00
77410;BME280;66481;51.332;22.804;2024-02-26T06:03:22;99101.34;;;7.50;100.00
77410;BME280;66481;51.332;22.804;2024-02-26T06:07:24;99099.56;;;7.51;100.00
77410;BME280;66481;51.332;22.804;2024-02-26T06:11:25;99094.31;;;7.51;100.00
77410;BME280;66481;51.332;22.804;2024-02-26T06:15:26;99100.09;;;7.56;100.00
77410;BME280;66481;51.332;22.804;2024-02-26T06:19:27;99096.06;;;7.50;100.00
77410;BME280;66481;51.332;22.804;2024-02-26T06:23:29;99100.59;;;7.48;100.00
77410;BME280;66481;51.332;22.804;2024-02-26T06:27:30;99107.78;;;7.46;100.00
77410;BME280;66481;51.332;22.804;2024-02-26T06:31:32;99098.09;;;7.47;100.00
77410;BME280;66481;51.332;22.804;2024-02-26T06:35:33;99105.34;;;7.43;100.00
77410;BME280;66481;51.332;22.804;2024-02-26T06:39:35;99109.34;;;7.49;100.00
77410;BME280;66481;51.332;22.804;2024-02-26T06:43:37;99111.97;;;7.49;100.00
77410;BME280;66481;51.332;22.804;2024-02-26T06:47:39;99120.38;;;7.54;100.00
77410;BME280;66481;51.332;22.804;2024-02-26T06:51:40;99110.81;;;7.53;100.00
77410;BME280;66481;51.332;22.804;2024-02-26T06:55:42;99121.00;;;7.58;100.00
77410;BME280;66481;51.332;22.804;2024-02-26T06:59:44;99108.09;;;7.55;100.00
77410;BME280;66481;51.332;22.804;2024-02-26T07:03:50;99120.78;;;7.61;100.00
77410;BME280;66481;51.332;22.804;2024-02-26T07:07:51;99122.50;;;7.62;100.00
77410;BME280;66481;51.332;22.804;2024-02-26T07:11:52;99116.25;;;7.63;100.00
77410;BME280;66481;51.332;22.804;2024-02-26T07:15:53;99106.34;;;7.66;100.00
77410;BME280;66481;51.332;22.804;2024-02-26T07:19:55;99105.41;;;7.67;100.00
77410;BME280;66481;51.332;22.804;2024-02-26T07:23:56;99116.66;;;7.69;100.00
77410;BME280;66481;51.332;22.804;2024-02-26T07:27:57;99116.66;;;7.69;100.00
77410;BME280;66481;51.332;22.804;2024-02-26T07:31:58;99120.25;;;7.68;100.00
77410;BME280;66481;51.332;22.804;2024-02-26T07:36:00;99118.34;;;7.70;100.00
77410;BME280;66481;51.332;22.804;2024-02-26T07:40:01;99119.59;;;7.78;100.00
77410;BME280;66481;51.332;22.804;2024-02-26T07:44:02;99110.41;;;7.83;100.00
77410;BME280;66481;51.332;22.804;2024-02-26T07:48:04;99127.22;;;7.94;100.00
77410;BME280;66481;51.332;22.804;2024-02-26T07:52:05;99115.75;;;7.95;100.00
77410;BME280;66481;51.332;22.804;2024-02-26T07:56:06;99094.47;;;7.98;100.00
77410;BME280;66481;51.332;22.804;2024-02-26T08:00:09;99094.78;;;8.17;100.00
77410;BME280;66481;51.332;22.804;2024-02-26T08:04:10;99114.69;;;8.45;100.00
77410;BME280;66481;51.332;22.804;2024-02-26T08:08:11;99097.44;;;8.53;100.00
77410;BME280;66481;51.332;22.804;2024-02-26T08:12:12;99086.78;;;8.54;100.00
77410;BME280;66481;51.332;22.804;2024-02-26T08:16:13;99078.66;;;8.57;100.00
77410;BME280;66481;51.332;22.804;2024-02-26T08:20:15;99072.44;;;8.58;100.00
77410;BME280;66481;51.332;22.804;2024-02-26T08:24:17;99065.50;;;8.69;100.00
77410;BME280;66481;51.332;22.804;2024-02-26T08:28:18;99059.75;;;8.75;100.00
77410;BME280;66481;51.332;22.804;2024-02-26T08:32:19;99054.84;;;9.15;100.00
77410;BME280;66481;51.332;22.804;2024-02-26T08:36:20;99059.63;;;9.88;100.00
77410;BME280;66481;51.332;22.804;2024-02-26T08:40:23;99042.38;;;11.10;100.00
77410;BME280;66481;51.332;22.804;2024-02-26T08:44:24;99003.66;;;10.78;100.00
77410;BME280;66481;51.332;22.804;2024-02-26T08:48:26;98985.97;;;11.19;100.00
77410;BME280;66481;51.332;22.804;2024-02-26T08:52:27;98997.09;;;12.41;100.00
77410;BME280;66481;51.332;22.804;2024-02-26T08:56:28;98949.09;;;11.37;100.00
77410;BME280;66481;51.332;22.804;2024-02-26T09:00:29;98934.25;;;10.65;100.00
77410;BME280;66481;51.332;22.804;2024-02-26T09:04:31;98938.66;;;10.85;100.00
77410;BME280;66481;51.332;22.804;2024-02-26T09:08:33;98934.94;;;10.67;100.00
77410;BME280;66481;51.332;22.804;2024-02-26T09:12:34;98936.06;;;11.05;100.00
77410;BME280;66481;51.332;22.804;2024-02-26T09:16:35;98918.94;;;10.68;99.71
77410;BME280;66481;51.332;22.804;2024-02-26T09:20:36;98918.31;;;10.45;100.00
77410;BME280;66481;51.332;22.804;2024-02-26T09:24:37;98909.78;;;10.21;100.00
77410;BME280;66481;51.332;22.804;2024-02-26T09:28:38;98912.16;;;10.24;100.00
77410;BME280;66481;51.332;22.804;2024-02-26T09:32:40;98923.66;;;10.65;100.00
77410;BME280;66481;51.332;22.804;2024-02-26T09:36:48;98927.63;;;10.80;100.00
77410;BME280;66481;51.332;22.804;2024-02-26T09:40:49;98929.00;;;11.25;99.36
77410;BME280;66481;51.332;22.804;2024-02-26T09:44:53;98925.69;;;11.62;97.74
77410;BME280;66481;51.332;22.804;2024-02-26T09:48:54;98917.72;;;11.81;96.10
77410;BME280;66481;51.332;22.804;2024-02-26T09:52:56;98898.06;;;11.55;95.13
77410;BME280;66481;51.332;22.804;2024-02-26T09:57:02;98889.34;;;11.04;96.57
77410;BME280;66481;51.332;22.804;2024-02-26T10:01:11;98884.81;;;10.65;98.03
77410;BME280;66481;51.332;22.804;2024-02-26T10:05:16;98890.97;;;10.66;98.82
77410;BME280;66481;51.332;22.804;2024-02-26T10:09:19;98883.19;;;10.43;98.84
77410;BME280;66481;51.332;22.804;2024-02-26T10:13:20;98900.03;;;10.42;100.00
77410;BME280;66481;51.332;22.804;2024-02-26T10:17:21;98890.16;;;10.44;100.00
77410;BME280;66481;51.332;22.804;2024-02-26T10:21:23;98886.13;;;10.50;100.00
77410;BME280;66481;51.332;22.804;2024-02-26T10:25:24;98889.44;;;10.73;100.00
77410;BME280;66481;51.332;22.804;2024-02-26T10:29:25;98894.88;;;10.81;100.00
77410;BME280;66481;51.332;22.804;2024-02-26T10:33:27;98899.38;;;11.00;99.41
77410;BME280;66481;51.332;22.804;2024-02-26T10:37:28;98900.28;;;11.30;98.18
77410;BME280;66481;51.332;22.804;2024-02-26T10:41:29;98910.47;;;12.03;97.15
77410;BME280;66481;51.332;22.804;2024-02-26T10:45:31;98889.69;;;11.69;95.02
77410;BME280;66481;51.332;22.804;2024-02-26T10:49:35;98892.75;;;11.94;94.21
77410;BME280;66481;51.332;22.804;2024-02-26T10:53:36;98883.09;;;12.12;94.34
77410;BME280;66481;51.332;22.804;2024-02-26T10:57:40;98870.97;;;12.10;92.89
77410;BME280;66481;51.332;22.804;2024-02-26T11:01:43;98879.28;;;12.62;92.64
77410;BME280;66481;51.332;22.804;2024-02-26T11:05:50;98858.41;;;12.49;91.44
77410;BME280;66481;51.332;22.804;2024-02-26T11:09:52;98843.69;;;12.27;91.20
77410;BME280;66481;51.332;22.804;2024-02-26T11:13:54;98846.28;;;12.37;91.70
77410;BME280;66481;51.332;22.804;2024-02-26T11:17:58;98841.75;;;12.47;91.11
77410;BME280;66481;51.332;22.804;2024-02-26T11:22:00;98834.44;;;12.31;91.14
77410;BME280;66481;51.332;22.804;2024-02-26T11:26:05;98847.06;;;12.47;91.51
77410;BME280;66481;51.332;22.804;2024-02-26T11:30:12;98842.09;;;12.44;92.13
77410;BME280;66481;51.332;22.804;2024-02-26T11:34:14;98832.78;;;12.30;93.27
77410;BME280;66481;51.332;22.804;2024-02-26T11:38:22;98840.44;;;12.61;92.96
77410;BME280;66481;51.332;22.804;2024-02-26T11:42:24;98831.75;;;12.69;93.09
77410;BME280;66481;51.332;22.804;2024-02-26T11:46:38;98825.59;;;12.68;91.77
77410;BME280;66481;51.332;22.804;2024-02-26T11:50:40;98819.16;;;12.71;90.82
77410;BME280;66481;51.332;22.804;2024-02-26T11:54:56;98819.69;;;12.74;90.47
77410;BME280;66481;51.332;22.804;2024-02-26T11:59:10;98811.88;;;12.73;90.27
77410;BME280;66481;51.332;22.804;2024-02-26T12:03:15;98823.13;;;12.85;91.23
77410;BME280;66481;51.332;22.804;2024-02-26T12:07:18;98831.78;;;12.87;90.63
77410;BME280;66481;51.332;22.804;2024-02-26T12:11:20;98824.19;;;12.92;89.59
77410;BME280;66481;51.332;22.804;2024-02-26T12:15:23;98825.19;;;12.91;90.32
77410;BME280;66481;51.332;22.804;2024-02-26T12:19:24;98822.38;;;12.92;90.55
77410;BME280;66481;51.332;22.804;2024-02-26T12:23:26;98813.44;;;12.93;91.10
77410;BME280;66481;51.332;22.804;2024-02-26T12:27:28;98819.03;;;12.90;90.54
77410;BME280;66481;51.332;22.804;2024-02-26T12:31:30;98808.34;;;13.00;90.36
77410;BME280;66481;51.332;22.804;2024-02-26T12:35:32;98809.41;;;13.07;90.38
77410;BME280;66481;51.332;22.804;2024-02-26T12:39:33;98821.88;;;13.07;91.70
77410;BME280;66481;51.332;22.804;2024-02-26T12:43:34;98822.78;;;13.15;91.50
77410;BME280;66481;51.332;22.804;2024-02-26T12:47:37;98823.06;;;13.12;90.67
77410;BME280;66481;51.332;22.804;2024-02-26T12:51:39;98822.00;;;13.05;88.84
77410;BME280;66481;51.332;22.804;2024-02-26T12:55:42;98815.53;;;13.08;87.91
77410;BME280;66481;51.332;22.804;2024-02-26T12:59:44;98819.28;;;13.15;87.19
77410;BME280;66481;51.332;22.804;2024-02-26T13:03:46;98820.94;;;13.16;86.56
77410;BME280;66481;51.332;22.804;2024-02-26T13:07:47;98816.06;;;13.11;86.78
77410;BME280;66481;51.332;22.804;2024-02-26T13:11:56;98814.72;;;13.07;85.47
77410;BME280;66481;51.332;22.804;2024-02-26T13:16:05;98817.16;;;13.01;84.85
77410;BME280;66481;51.332;22.804;2024-02-26T13:20:09;98821.25;;;12.95;86.51
77410;BME280;66481;51.332;22.804;2024-02-26T13:24:13;98809.19;;;13.01;85.71
77410;BME280;66481;51.332;22.804;2024-02-26T13:28:16;98813.22;;;13.05;85.43
77410;BME280;66481;51.332;22.804;2024-02-26T13:32:20;98829.06;;;13.14;86.00
77410;BME280;66481;51.332;22.804;2024-02-26T13:36:23;98818.59;;;13.13;84.87
77410;BME280;66481;51.332;22.804;2024-02-26T13:40:26;98824.53;;;13.07;86.42
77410;BME280;66481;51.332;22.804;2024-02-26T13:44:27;98845.38;;;13.02;87.56
77410;BME280;66481;51.332;22.804;2024-02-26T13:48:29;98832.00;;;12.93;87.90
77410;BME280;66481;51.332;22.804;2024-02-26T13:52:30;98840.50;;;12.97;87.61
77410;BME280;66481;51.332;22.804;2024-02-26T13:56:34;98844.38;;;13.03;87.76
77410;BME280;66481;51.332;22.804;2024-02-26T14:00:35;98855.78;;;13.13;87.95
77410;BME280;66481;51.332;22.804;2024-02-26T14:04:37;98848.56;;;13.23;88.00
77410;BME280;66481;51.332;22.804;2024-02-26T14:08:39;98864.03;;;13.38;88.31
77410;BME280;66481;51.332;22.804;2024-02-26T14:12:40;98854.94;;;13.30;88.70
77410;BME280;66481;51.332;22.804;2024-02-26T14:16:41;98855.19;;;13.19;88.98
77410;BME280;66481;51.332;22.804;2024-02-26T14:20:42;98871.19;;;13.09;89.48
77410;BME280;66481;51.332;22.804;2024-02-26T14:24:45;98869.44;;;13.00;90.88
77410;BME280;66481;51.332;22.804;2024-02-26T14:28:46;98873.91;;;13.00;91.50
77410;BME280;66481;51.332;22.804;2024-02-26T14:32:51;98877.25;;;13.02;91.74
77410;BME280;66481;51.332;22.804;2024-02-26T14:36:52;98884.22;;;13.03;92.28
77410;BME280;66481;51.332;22.804;2024-02-26T14:40:53;98885.66;;;12.97;92.47
77410;BME280;66481;51.332;22.804;2024-02-26T14:44:55;98887.91;;;12.92;92.62
77410;BME280;66481;51.332;22.804;2024-02-26T14:48:56;98889.69;;;12.73;95.18
77410;BME280;66481;51.332;22.804;2024-02-26T14:53:00;98892.00;;;12.58;96.46
77410;BME280;66481;51.332;22.804;2024-02-26T14:57:04;98883.88;;;12.32;97.85
77410;BME280;66481;51.332;22.804;2024-02-26T15:01:05;98903.06;;;12.16;99.84
77410;BME280;66481;51.332;22.804;2024-02-26T15:05:09;98921.22;;;12.11;100.00
77410;BME280;66481;51.332;22.804;2024-02-26T15:09:12;98930.97;;;12.11;100.00
77410;BME280;66481;51.332;22.804;2024-02-26T15:13:14;98916.75;;;12.02;100.00
77410;BME280;66481;51.332;22.804;2024-02-26T15:17:16;98913.41;;;12.00;100.00
77410;BME280;66481;51.332;22.804;2024-02-26T15:21:17;98909.34;;;12.06;100.00
77410;BME280;66481;51.332;22.804;2024-02-26T15:25:19;98920.94;;;11.95;100.00
77410;BME280;66481;51.332;22.804;2024-02-26T15:29:20;98919.13;;;11.76;100.00
77410;BME280;66481;51.332;22.804;2024-02-26T15:33:24;98919.53;;;11.71;100.00
77410;BME280;66481;51.332;22.804;2024-02-26T15:37:25;98926.38;;;11.64;100.00
77410;BME280;66481;51.332;22.804;2024-02-26T15:41:27;98936.25;;;11.52;100.00
77410;BME280;66481;51.332;22.804;2024-02-26T15:45:28;98933.03;;;11.48;100.00
77410;BME280;66481;51.332;22.804;2024-02-26T15:49:34;98935.13;;;11.45;100.00
77410;BME280;66481;51.332;22.804;2024-02-26T15:53:36;98939.88;;;11.41;100.00
77410;BME280;66481;51.332;22.804;2024-02-26T15:57:38;98936.13;;;11.34;100.00
77410;BME280;66481;51.332;22.804;2024-02-26T16:01:39;98953.69;;;11.35;100.00
77410;BME280;66481;51.332;22.804;2024-02-26T16:05:41;98949.19;;;11.26;100.00
77410;BME280;66481;51.332;22.804;2024-02-26T16:09:42;98947.09;;;11.20;100.00
77410;BME280;66481;51.332;22.804;2024-02-26T16:13:44;98951.25;;;11.03;100.00
77410;BME280;66481;51.332;22.804;2024-02-26T16:17:47;98955.53;;;10.94;100.00
77410;BME280;66481;51.332;22.804;2024-02-26T16:21:49;98964.00;;;10.88;100.00
77410;BME280;66481;51.332;22.804;2024-02-26T16:25:50;98965.50;;;10.81;100.00
77410;BME280;66481;51.332;22.804;2024-02-26T16:29:53;98970.09;;;10.79;100.00
77410;BME280;66481;51.332;22.804;2024-02-26T16:33:55;98977.97;;;10.69;100.00
77410;BME280;66481;51.332;22.804;2024-02-26T16:37:57;98985.34;;;10.65;100.00
77410;BME280;66481;51.332;22.804;2024-02-26T16:41:59;98991.34;;;10.67;100.00
77410;BME280;66481;51.332;22.804;2024-02-26T16:46:00;98996.50;;;10.69;100.00
77410;BME280;66481;51.332;22.804;2024-02-26T16:50:02;98997.50;;;10.68;100.00
77410;BME280;66481;51.332;22.804;2024-02-26T16:54:07;99004.00;;;10.64;100.00
77410;BME280;66481;51.332;22.804;2024-02-26T16:58:08;99021.44;;;10.66;100.00
77410;BME280;66481;51.332;22.804;2024-02-26T17:02:10;99022.72;;;10.72;100.00
77410;BME280;66481;51.332;22.804;2024-02-26T17:06:13;99010.19;;;10.74;100.00
77410;BME280;66481;51.332;22.804;2024-02-26T17:10:17;99012.56;;;10.77;100.00
77410;BME280;66481;51.332;22.804;2024-02-26T17:14:19;99014.97;;;10.80;100.00
77410;BME280;66481;51.332;22.804;2024-02-26T17:18:22;99020.38;;;10.79;100.00
77410;BME280;66481;51.332;22.804;2024-02-26T17:22:23;99014.91;;;10.70;100.00
77410;BME280;66481;51.332;22.804;2024-02-26T17:26:28;99016.28;;;10.65;100.00
77410;BME280;66481;51.332;22.804;2024-02-26T17:30:30;99033.41;;;10.70;100.00
77410;BME280;66481;51.332;22.804;2024-02-26T17:34:31;99029.41;;;10.76;100.00
77410;BME280;66481;51.332;22.804;2024-02-26T17:38:32;99027.06;;;10.83;100.00
77410;BME280;66481;51.332;22.804;2024-02-26T17:42:34;99023.41;;;11.05;100.00
77410;BME280;66481;51.332;22.804;2024-02-26T17:46:35;99015.28;;;11.27;100.00
77410;BME280;66481;51.332;22.804;2024-02-26T17:50:37;98993.66;;;11.22;100.00
77410;BME280;66481;51.332;22.804;2024-02-26T17:54:39;99002.88;;;11.38;100.00
77410;BME280;66481;51.332;22.804;2024-02-26T17:58:40;98986.31;;;11.36;100.00
77410;BME280;66481;51.332;22.804;2024-02-26T18:02:43;98988.69;;;11.39;100.00
77410;BME280;66481;51.332;22.804;2024-02-26T18:06:44;98976.38;;;11.28;100.00
77410;BME280;66481;51.332;22.804;2024-02-26T18:10:48;98963.25;;;11.17;100.00
77410;BME280;66481;51.332;22.804;2024-02-26T18:14:50;98978.28;;;11.06;100.00
77410;BME280;66481;51.332;22.804;2024-02-26T18:18:51;98990.94;;;11.03;100.00
77410;BME280;66481;51.332;22.804;2024-02-26T18:22:52;98983.84;;;11.03;100.00
77410;BME280;66481;51.332;22.804;2024-02-26T18:26:54;98998.19;;;11.01;100.00
77410;BME280;66481;51.332;22.804;2024-02-26T18:30:55;99007.91;;;10.90;100.00
77410;BME280;66481;51.332;22.804;2024-02-26T18:35:03;99012.19;;;10.82;100.00
77410;BME280;66481;51.332;22.804;2024-02-26T18:39:05;99014.97;;;10.80;100.00
77410;BME280;66481;51.332;22.804;2024-02-26T18:43:10;99020.44;;;10.67;100.00
77410;BME280;66481;51.332;22.804;2024-02-26T18:47:13;99017.22;;;10.64;100.00
77410;BME280;66481;51.332;22.804;2024-02-26T18:51:15;99005.47;;;10.47;100.00
77410;BME280;66481;51.332;22.804;2024-02-26T18:55:17;99022.41;;;10.44;100.00
77410;BME280;66481;51.332;22.804;2024-02-26T18:59:18;99019.19;;;10.41;100.00
77410;BME280;66481;51.332;22.804;2024-02-26T19:03:21;99017.31;;;10.31;100.00
77410;BME280;66481;51.332;22.804;2024-02-26T19:07:23;99021.78;;;10.20;100.00
77410;BME280;66481;51.332;22.804;2024-02-26T19:11:29;99013.78;;;10.10;100.00
77410;BME280;66481;51.332;22.804;2024-02-26T19:15:31;99033.88;;;10.01;100.00
77410;BME280;66481;51.332;22.804;2024-02-26T19:19:35;99020.41;;;9.83;100.00
77410;BME280;66481;51.332;22.804;2024-02-26T19:23:39;99026.63;;;9.82;100.00
77410;BME280;66481;51.332;22.804;2024-02-26T19:27:43;99029.31;;;9.71;100.00
77410;BME280;66481;51.332;22.804;2024-02-26T19:31:45;99029.94;;;9.63;100.00
77410;BME280;66481;51.332;22.804;2024-02-26T19:35:47;99027.22;;;9.53;100.00
77410;BME280;66481;51.332;22.804;2024-02-26T19:39:49;99051.34;;;9.49;100.00
77410;BME280;66481;51.332;22.804;2024-02-26T19:43:52;99044.88;;;9.41;100.00
77410;BME280;66481;51.332;22.804;2024-02-26T19:47:55;99056.75;;;9.36;100.00
77410;BME280;66481;51.332;22.804;2024-02-26T19:51:57;99054.84;;;9.27;100.00
77410;BME280;66481;51.332;22.804;2024-02-26T19:56:00;99058.94;;;9.19;100.00
77410;BME280;66481;51.332;22.804;2024-02-26T20:00:06;99060.84;;;9.06;100.00
77410;BME280;66481;51.332;22.804;2024-02-26T20:04:08;99069.97;;;9.02;100.00
77410;BME280;66481;51.332;22.804;2024-02-26T20:08:13;99069.72;;;8.94;100.00
77410;BME280;66481;51.332;22.804;2024-02-26T20:12:14;99088.19;;;8.94;100.00
77410;BME280;66481;51.332;22.804;2024-02-26T20:16:16;99083.25;;;8.89;100.00
77410;BME280;66481;51.332;22.804;2024-02-26T20:20:17;99098.84;;;8.81;100.00
77410;BME280;66481;51.332;22.804;2024-02-26T20:24:19;99095.84;;;8.74;100.00
77410;BME280;66481;51.332;22.804;2024-02-26T20:28:23;99098.81;;;8.70;100.00
77410;BME280;66481;51.332;22.804;2024-02-26T20:32:25;99108.53;;;8.69;100.00
77410;BME280;66481;51.332;22.804;2024-02-26T20:36:33;99109.84;;;8.63;100.00
77410;BME280;66481;51.332;22.804;2024-02-26T20:40:37;99106.72;;;8.58;100.00
77410;BME280;66481;51.332;22.804;2024-02-26T20:44:40;99118.16;;;8.46;100.00
77410;BME280;66481;51.332;22.804;2024-02-26T20:48:42;99141.03;;;8.45;100.00
77410;BME280;66481;51.332;22.804;2024-02-26T20:52:45;99143.97;;;8.41;100.00
77410;BME280;66481;51.332;22.804;2024-02-26T20:56:47;99134.03;;;8.33;100.00
77410;BME280;66481;51.332;22.804;2024-02-26T21:01:09;99131.81;;;8.27;100.00